Time;durP1;ratioP1;P1;durP2;ratioP2;P2;SDS_P1;SDS_P2;PMS_P1;PMS_P2;Temp;Humidity;BMP_temperature;BMP_pressure;BME280_temperature;BME280_humidity;BME280_pressure;Samples;Min_cycle;Max_cycle;Signal;HPM_P1;HPM_P2
2022/04/22 03:02:25;;;;;;;1.85;1.67;;;18.80;47.10;;;;;;5030500;23;45222;-64
2022/04/22 03:04:50;;;;;;;2.17;1.60;;;18.80;47.20;;;;;;4935862;28;44870;-64
2022/04/22 03:07:16;;;;;;;1.80;1.70;;;18.80;47.20;;;;;;4920326;28;45142;-65
2022/04/22 03:09:42;;;;;;;1.88;1.65;;;18.80;47.20;;;;;;4974246;28;44787;-64
2022/04/22 03:12:08;;;;;;;1.70;1.42;;;18.80;47.10;;;;;;4928815;28;45682;-64
2022/04/22 03:14:34;;;;;;;1.70;1.60;;;18.80;47.10;;;;;;4932284;28;45240;-64
2022/04/22 03:16:59;;;;;;;1.80;1.60;;;18.80;47.20;;;;;;4938874;28;45309;-65
2022/04/22 03:19:25;;;;;;;2.00;1.80;;;18.80;47.20;;;;;;4960414;28;45157;-65
2022/04/22 03:21:51;;;;;;;1.67;1.42;;;18.80;47.20;;;;;;4938342;28;46436;-65
2022/04/22 03:24:16;;;;;;;1.52;1.42;;;18.80;47.20;;;;;;4920915;28;45109;-65
2022/04/22 03:26:42;;;;;;;1.77;1.58;;;18.80;47.20;;;;;;4955497;28;45490;-64
2022/04/22 03:29:08;;;;;;;1.60;1.45;;;18.80;47.20;;;;;;4929925;28;45270;-64
2022/04/22 03:31:33;;;;;;;1.60;1.50;;;18.80;47.20;;;;;;4922717;28;45266;-64
2022/04/22 03:33:59;;;;;;;1.65;1.55;;;18.80;47.20;;;;;;4952526;28;45393;-64
2022/04/22 03:36:24;;;;;;;3.95;1.83;;;18.80;47.20;;;;;;4921565;28;45385;-65
2022/04/22 03:38:50;;;;;;;1.83;1.65;;;18.80;47.20;;;;;;4941952;28;44719;-66
2022/04/22 03:41:16;;;;;;;1.45;1.25;;;18.80;47.10;;;;;;4945111;28;45416;-65
2022/04/22 03:43:41;;;;;;;1.60;1.45;;;18.70;47.10;;;;;;4938665;28;45444;-64
2022/04/22 03:46:07;;;;;;;1.63;1.50;;;18.80;47.20;;;;;;4938829;28;45527;-65
2022/04/22 03:48:32;;;;;;;1.60;1.35;;;18.80;47.20;;;;;;4918745;28;45359;-64
2022/04/22 03:50:58;;;;;;;1.70;1.60;;;18.80;47.20;;;;;;4909323;28;46857;-65
2022/04/22 03:53:24;;;;;;;1.65;1.55;;;18.70;47.10;;;;;;4953473;28;45350;-65
2022/04/22 03:55:49;;;;;;;2.00;1.73;;;18.70;47.20;;;;;;4935335;28;45475;-66
2022/04/22 03:58:16;;;;;;;2.45;1.95;;;18.70;47.20;;;;;;4937850;28;45471;-65
2022/04/22 04:00:43;;;;;;;1.83;1.60;;;18.70;47.20;;;;;;4932653;28;45669;-65
2022/04/22 04:03:13;;;;;;;1.58;1.45;;;18.70;47.20;;;;;;4927085;28;45450;-67
2022/04/22 04:05:39;;;;;;;2.00;1.70;;;18.70;47.20;;;;;;4923019;28;44993;-67
2022/04/22 04:08:05;;;;;;;2.35;1.90;;;18.70;47.30;;;;;;4910328;28;45039;-65
2022/04/22 04:16:00;;;;;;;1.63;1.35;;;18.70;47.20;;;;;;4910877;28;45047;-65
2022/04/22 04:18:27;;;;;;;1.70;1.60;;;18.70;47.20;;;;;;4937684;28;45436;-65
2022/04/22 04:23:37;;;;;;;1.83;1.73;;;18.70;47.20;;;;;;4941892;28;46487;-66
2022/04/22 04:26:03;;;;;;;1.67;1.58;;;18.70;47.20;;;;;;4927358;28;45182;-65
2022/04/22 04:28:28;;;;;;;1.77;1.42;;;18.70;47.20;;;;;;4928431;28;45473;-65
2022/04/22 04:30:57;;;;;;;1.60;1.50;;;18.70;47.20;;;;;;4927206;28;46575;-64
2022/04/22 04:33:23;;;;;;;1.88;1.65;;;18.70;47.20;;;;;;4908249;28;45728;-65
2022/04/22 04:35:50;;;;;;;1.30;1.20;;;18.70;47.20;;;;;;4926228;28;45103;-64
2022/04/22 04:38:16;;;;;;;1.83;1.35;;;18.60;47.10;;;;;;4929293;28;45397;-64
2022/04/22 04:40:42;;;;;;;1.90;1.75;;;18.60;47.10;;;;;;4906638;28;46904;-64
2022/04/22 04:43:07;;;;;;;1.70;1.50;;;18.60;47.10;;;;;;4929816;28;45613;-64
2022/04/22 04:45:33;;;;;;;1.60;1.50;;;18.60;47.10;;;;;;4913936;28;45549;-64
2022/04/22 04:47:59;;;;;;;1.77;1.67;;;18.60;47.10;;;;;;4933929;28;45589;-64
2022/04/22 04:50:25;;;;;;;2.03;1.63;;;18.60;47.20;;;;;;4926561;28;45548;-65
2022/04/22 04:52:50;;;;;;;2.10;1.65;;;18.60;47.20;;;;;;4911377;28;44782;-65
2022/04/22 04:55:16;;;;;;;1.80;1.70;;;18.60;47.20;;;;;;4922564;28;45073;-66
2022/04/22 04:57:45;;;;;;;1.83;1.70;;;18.60;47.80;;;;;;4908445;28;44961;-66
2022/04/22 05:00:11;;;;;;;1.65;1.55;;;18.60;47.20;;;;;;4926368;28;45154;-67
2022/04/22 05:02:37;;;;;;;1.65;1.55;;;18.60;47.20;;;;;;4896824;28;44942;-65
2022/04/22 05:05:05;;;;;;;2.15;1.67;;;18.60;47.20;;;;;;4942218;28;45190;-64
2022/04/22 05:07:31;;;;;;;1.95;1.70;;;18.60;47.20;;;;;;4916916;28;45600;-66
2022/04/22 05:09:57;;;;;;;1.73;1.48;;;18.60;47.20;;;;;;4944608;28;45385;-64
2022/04/22 05:12:22;;;;;;;2.00;1.80;;;18.60;47.10;;;;;;4929534;28;45487;-64
2022/04/22 05:14:48;;;;;;;1.80;1.70;;;18.60;47.10;;;;;;4898122;28;45614;-65
2022/04/22 05:17:14;;;;;;;1.73;1.63;;;18.60;47.10;;;;;;4950441;28;44871;-65
2022/04/22 05:19:40;;;;;;;1.42;1.33;;;18.60;47.10;;;;;;4937184;28;45079;-64
2022/04/22 05:22:06;;;;;;;1.70;1.60;;;18.60;47.10;;;;;;4931162;28;45454;-65
2022/04/22 05:24:32;;;;;;;1.88;1.67;;;18.60;47.10;;;;;;4931678;28;44909;-65
2022/04/22 05:26:59;;;;;;;1.83;1.58;;;18.60;47.10;;;;;;4935048;28;45567;-64
2022/04/22 05:34:54;;;;;;;1.70;1.58;;;18.60;47.10;;;;;;4933833;28;45222;-65
2022/04/22 05:37:20;;;;;;;1.60;1.50;;;18.60;47.00;;;;;;4918505;28;45687;-65
2022/04/22 05:39:46;;;;;;;1.73;1.63;;;18.60;47.10;;;;;;4928628;28;45317;-65
2022/04/22 05:42:12;;;;;;;1.73;1.63;;;18.60;47.00;;;;;;4925136;28;45652;-65
2022/04/22 05:44:38;;;;;;;1.77;1.55;;;18.60;47.00;;;;;;4929766;28;45527;-65
2022/04/22 05:47:05;;;;;;;1.83;1.73;;;18.60;47.00;;;;;;4949688;28;44929;-65
2022/04/22 05:49:30;;;;;;;2.03;1.83;;;18.70;47.00;;;;;;4926895;28;45615;-65
2022/04/22 05:51:56;;;;;;;1.48;1.38;;;18.60;46.90;;;;;;4953581;28;45464;-65
2022/04/22 05:54:22;;;;;;;1.40;1.30;;;18.70;47.00;;;;;;4929984;28;45765;-65
2022/04/22 05:56:47;;;;;;;1.88;1.70;;;18.70;47.00;;;;;;4932987;28;46160;-65
2022/04/22 05:59:13;;;;;;;1.83;1.73;;;18.70;46.90;;;;;;4948073;28;45415;-64
2022/04/22 06:01:38;;;;;;;1.80;1.52;;;18.70;46.90;;;;;;4931382;28;45232;-66
2022/04/22 06:04:04;;;;;;;2.30;1.80;;;18.70;46.90;;;;;;4918650;28;45125;-69
2022/04/22 06:06:29;;;;;;;2.20;2.00;;;18.70;46.90;;;;;;4933850;28;45079;-67
2022/04/22 06:11:40;;;;;;;1.65;1.55;;;18.80;46.80;;;;;;4934749;28;45501;-67
2022/04/22 06:14:05;;;;;;;2.22;1.80;;;18.90;46.80;;;;;;4933126;28;45882;-66
2022/04/22 06:16:31;;;;;;;1.98;1.77;;;18.90;46.60;;;;;;4930245;28;45615;-68
2022/04/22 06:18:56;;;;;;;1.67;1.50;;;19.00;46.50;;;;;;4935157;28;46385;-67
2022/04/22 06:21:22;;;;;;;1.58;1.48;;;19.10;46.40;;;;;;4896842;28;44842;-67
2022/04/22 06:23:48;;;;;;;2.70;1.58;;;19.20;46.30;;;;;;4915406;28;45513;-65
2022/04/22 06:26:13;;;;;;;1.63;1.35;;;19.40;46.10;;;;;;4932335;28;45295;-66
2022/04/22 06:28:39;;;;;;;3.70;1.38;;;19.40;46.00;;;;;;4930536;28;46737;-65
2022/04/22 06:31:05;;;;;;;1.38;1.27;;;19.60;45.80;;;;;;4910972;28;45341;-66
2022/04/22 06:33:30;;;;;;;1.98;1.40;;;19.70;45.80;;;;;;4955069;28;45525;-68
2022/04/22 06:35:57;;;;;;;1.48;1.10;;;19.80;45.60;;;;;;4918437;28;45240;-70
2022/04/22 06:38:22;;;;;;;2.40;1.40;;;19.90;45.60;;;;;;4911763;28;46861;-68
2022/04/22 06:46:17;;;;;;;1.60;1.20;;;20.30;45.20;;;;;;4948032;28;45117;-66
2022/04/22 06:48:43;;;;;;;1.95;1.40;;;20.40;45.10;;;;;;4929066;28;45556;-67
2022/04/22 06:51:09;;;;;;;1.10;1.02;;;20.50;45.00;;;;;;4949978;28;45081;-67
2022/04/22 06:53:35;;;;;;;1.77;1.17;;;20.60;44.90;;;;;;4933007;28;45568;-68
2022/04/22 06:56:02;;;;;;;1.42;1.30;;;20.70;44.80;;;;;;4932582;28;44905;-68
2022/04/22 06:58:29;;;;;;;;;;;20.90;44.70;;;;;;4930341;28;46802;-68
2022/04/22 07:00:55;;;;;;;3.72;1.00;;;21.00;44.50;;;;;;4926384;28;45069;-68
2022/04/22 07:03:21;;;;;;;1.23;1.13;;;21.10;44.50;;;;;;4930226;28;45297;-65
2022/04/22 07:05:48;;;;;;;0.80;0.80;;;21.20;44.40;;;;;;4930261;28;45611;-66
2022/04/22 07:08:14;;;;;;;1.30;1.20;;;21.30;44.30;;;;;;4926602;28;45691;-67
2022/04/22 07:10:49;;;;;;;1.10;1.00;;;21.40;44.30;;;;;;4931774;28;45333;-65
2022/04/22 07:13:16;;;;;;;3.15;1.20;;;21.50;44.10;;;;;;4909856;28;45374;-64
2022/04/22 07:15:46;;;;;;;1.30;1.20;;;21.60;44.00;;;;;;4931819;28;46077;-67
2022/04/22 07:18:13;;;;;;;1.45;1.05;;;21.70;43.90;;;;;;4951357;28;45528;-65
2022/04/22 07:20:39;;;;;;;1.10;1.00;;;21.90;43.90;;;;;;4909447;28;45186;-67
2022/04/22 07:23:05;;;;;;;1.60;1.33;;;21.90;43.80;;;;;;4925859;28;45340;-66
2022/04/22 07:25:31;;;;;;;1.20;1.10;;;22.00;43.70;;;;;;4947518;28;45726;-68
2022/04/22 07:27:58;;;;;;;;;;;22.10;43.60;;;;;;4939436;28;47305;-66
2022/04/22 07:30:24;;;;;;;;;;;22.20;43.30;;;;;;4947625;28;45565;-67
2022/04/22 07:32:50;;;;;;;;;;;22.30;43.20;;;;;;4946730;28;45451;-67
2022/04/22 07:35:16;;;;;;;;;;;22.30;43.10;;;;;;4947565;28;45195;-67
2022/04/22 07:37:43;;;;;;;0.73;0.73;;;22.50;43.00;;;;;;4937746;28;47428;-66
2022/04/22 07:40:08;;;;;;;1.00;0.90;;;22.50;43.20;;;;;;4907780;28;45921;-66
2022/04/22 07:42:35;;;;;;;0.73;0.73;;;22.70;43.20;;;;;;4927451;28;45522;-68
2022/04/22 07:47:47;;;;;;;0.98;0.85;;;22.80;43.10;;;;;;4930390;28;45667;-66
2022/04/22 07:50:13;;;;;;;1.17;0.90;;;22.80;43.10;;;;;;4945778;28;45716;-66
2022/04/22 07:52:38;;;;;;;1.10;1.00;;;22.90;43.00;;;;;;4942562;28;45634;-66
2022/04/22 07:55:05;;;;;;;1.17;0.90;;;22.90;42.90;;;;;;4928298;28;44802;-68
2022/04/22 07:57:30;;;;;;;0.98;0.80;;;23.00;42.90;;;;;;4944557;28;46105;-66
2022/04/22 07:59:56;;;;;;;1.60;0.90;;;23.10;42.80;;;;;;4944932;28;45411;-67
2022/04/22 08:02:22;;;;;;;0.90;0.90;;;23.10;42.80;;;;;;4944552;28;45284;-68
2022/04/22 08:04:48;;;;;;;1.20;1.10;;;23.20;42.80;;;;;;4927394;28;45537;-65
2022/04/22 08:07:15;;;;;;;1.10;1.00;;;23.30;42.70;;;;;;4926703;28;45994;-66
2022/04/22 08:09:41;;;;;;;0.88;0.82;;;23.30;42.60;;;;;;4927094;28;45119;-70
2022/04/22 08:12:07;;;;;;;1.10;1.00;;;23.40;42.70;;;;;;4894544;28;46240;-68
2022/04/22 08:14:34;;;;;;;1.00;0.90;;;23.50;42.50;;;;;;4945788;28;45260;-68
2022/04/22 08:17:00;;;;;;;1.40;0.77;;;23.50;42.50;;;;;;4926598;28;46448;-67
2022/04/22 08:19:25;;;;;;;2.05;1.38;;;23.50;42.50;;;;;;4926490;28;45475;-68
2022/04/22 08:21:52;;;;;;;0.93;0.93;;;23.60;42.50;;;;;;4907034;28;45463;-68
2022/04/22 08:24:18;;;;;;;1.00;0.90;;;23.60;42.40;;;;;;4927320;28;45412;-68
2022/04/22 08:26:43;;;;;;;0.98;0.90;;;23.70;42.40;;;;;;4919884;28;46893;-67
2022/04/22 08:29:09;;;;;;;1.20;1.05;;;23.80;42.30;;;;;;4928148;28;45259;-69
2022/04/22 08:31:34;;;;;;;1.20;1.10;;;23.80;42.20;;;;;;4909289;28;45830;-69
2022/04/22 08:34:00;;;;;;;1.15;1.00;;;23.80;42.20;;;;;;4928178;28;45869;-68
2022/04/22 08:36:29;;;;;;;1.83;1.17;;;23.90;42.20;;;;;;4927243;28;45472;-65
2022/04/22 08:38:57;;;;;;;1.02;0.90;;;23.90;42.00;;;;;;4927028;28;45378;-69
2022/04/22 08:41:22;;;;;;;1.17;1.00;;;24.00;42.10;;;;;;4925514;28;45856;-67
2022/04/22 08:43:52;;;;;;;1.10;1.00;;;24.00;42.10;;;;;;4944437;28;45156;-68
2022/04/22 08:51:47;;;;;;;1.17;0.98;;;24.10;42.00;;;;;;4943153;28;46148;-67
2022/04/22 08:54:13;;;;;;;1.38;1.00;;;24.20;42.00;;;;;;4928205;28;46609;-65
2022/04/22 08:56:39;;;;;;;1.25;1.13;;;24.20;41.90;;;;;;4924475;28;45348;-65
2022/04/22 08:59:05;;;;;;;1.17;1.08;;;24.20;41.90;;;;;;4912712;28;45639;-66
2022/04/22 09:01:30;;;;;;;1.40;1.30;;;24.30;41.90;;;;;;4905775;28;45796;-64
2022/04/22 09:03:56;;;;;;;3.35;1.10;;;24.30;41.80;;;;;;4921222;28;45412;-64
2022/04/22 09:06:22;;;;;;;1.23;1.05;;;24.30;41.80;;;;;;4923021;28;45312;-65
2022/04/22 09:08:49;;;;;;;1.30;1.10;;;24.40;41.80;;;;;;4923036;28;45212;-64
2022/04/22 09:11:14;;;;;;;1.35;1.25;;;24.40;41.70;;;;;;4939404;28;46452;-66
2022/04/22 09:13:40;;;;;;;1.98;1.27;;;24.40;41.70;;;;;;4924706;28;45286;-66
2022/04/22 09:16:06;;;;;;;1.23;0.90;;;24.50;41.80;;;;;;4920890;28;46295;-68
2022/04/22 09:18:35;;;;;;;3.47;1.00;;;24.50;41.60;;;;;;4922159;28;45851;-67
2022/04/22 09:21:02;;;;;;;1.27;1.17;;;24.50;41.60;;;;;;4935249;28;46168;-66
2022/04/22 09:23:35;;;;;;;1.27;1.13;;;24.60;41.70;;;;;;4922363;28;45379;-66
2022/04/22 09:26:06;;;;;;;2.30;1.10;;;24.60;41.40;;;;;;4931669;28;46230;-65
2022/04/22 09:28:32;;;;;;;1.45;1.20;;;24.60;41.50;;;;;;4937452;28;45521;-67
2022/04/22 09:31:02;;;;;;;1.10;1.00;;;24.60;41.50;;;;;;4918856;28;45386;-65
2022/04/22 09:33:43;;;;;;;1.77;1.10;;;24.70;41.40;;;;;;4921749;28;45545;-65
2022/04/22 09:44:32;;;;;;;1.15;1.00;;;24.80;41.40;;;;;;4922936;28;45872;-66
2022/04/22 09:47:11;;;;;;;1.30;1.20;;;24.80;41.40;;;;;;4922149;28;45550;-66
2022/04/22 09:49:40;;;;;;;1.10;0.90;;;24.80;41.10;;;;;;4932412;28;45503;-65
2022/04/22 09:52:06;;;;;;;1.80;1.20;;;24.80;41.30;;;;;;4937138;28;45463;-66
2022/04/22 09:54:32;;;;;;;1.23;1.13;;;24.90;41.40;;;;;;4917009;28;45361;-66
2022/04/22 09:56:58;;;;;;;0.85;0.85;;;24.90;41.30;;;;;;4925562;28;45577;-65
2022/04/22 09:59:25;;;;;;;3.05;1.10;;;24.90;41.30;;;;;;4926499;28;45240;-65
2022/04/22 10:01:50;;;;;;;1.60;1.23;;;24.90;41.30;;;;;;4921767;28;45802;-65
2022/04/22 10:04:22;;;;;;;1.08;0.98;;;24.90;41.20;;;;;;4928362;28;45658;-65
2022/04/22 10:06:49;;;;;;;1.08;0.90;;;25.00;41.20;;;;;;4926046;28;45622;-66
2022/04/22 10:09:14;;;;;;;1.33;1.17;;;25.00;41.30;;;;;;4924318;28;45602;-65
2022/04/22 10:11:41;;;;;;;1.50;1.30;;;25.00;41.20;;;;;;4926226;28;45638;-66
2022/04/22 10:14:09;;;;;;;1.73;1.38;;;25.00;41.20;;;;;;4909464;28;45661;-68
2022/04/22 10:16:35;;;;;;;0.93;0.82;;;25.00;41.20;;;;;;4925945;28;48553;-66
2022/04/22 10:19:01;;;;;;;1.60;1.10;;;25.10;41.20;;;;;;4921599;28;45748;-68
2022/04/22 10:21:27;;;;;;;1.17;1.08;;;25.10;41.20;;;;;;4905062;28;45372;-66
2022/04/22 10:23:53;;;;;;;1.23;1.13;;;25.10;41.10;;;;;;4941146;28;44823;-66
2022/04/22 10:26:18;;;;;;;1.42;1.10;;;25.10;41.10;;;;;;4906463;28;45248;-66
2022/04/22 10:28:45;;;;;;;1.38;1.25;;;25.10;41.10;;;;;;4921915;28;45365;-67
2022/04/22 10:31:11;;;;;;;1.10;1.00;;;25.20;41.10;;;;;;4923666;28;45601;-66
2022/04/22 10:33:44;;;;;;;1.35;1.25;;;25.10;41.10;;;;;;4923792;28;45688;-67
2022/04/22 10:36:14;;;;;;;1.10;1.00;;;25.10;40.90;;;;;;4933820;28;45717;-65
2022/04/22 10:38:43;;;;;;;1.52;1.23;;;25.00;41.00;;;;;;4908597;28;45810;-65
2022/04/22 10:41:16;;;;;;;1.23;1.13;;;25.00;41.20;;;;;;4924944;28;45837;-64
2022/04/22 10:43:42;;;;;;;0.90;0.90;;;25.00;41.20;;;;;;4909065;28;45474;-65
2022/04/22 10:49:14;;;;;;;1.10;1.00;;;24.90;41.40;;;;;;4925107;28;46442;-65
2022/04/22 10:52:13;;;;;;;1.30;1.20;;;24.80;41.30;;;;;;4924095;28;45374;-65
2022/04/22 10:55:05;;;;;;;1.35;1.25;;;24.80;41.30;;;;;;4937403;28;46416;-64
2022/04/22 10:57:32;;;;;;;2.50;1.15;;;24.70;41.30;;;;;;4925645;28;46746;-65
2022/04/22 11:00:07;;;;;;;1.38;1.17;;;24.60;41.60;;;;;;4902125;28;45785;-66
2022/04/22 11:02:42;;;;;;;3.42;1.27;;;24.60;41.70;;;;;;4945105;28;45329;-65
2022/04/22 11:05:20;;;;;;;1.45;1.35;;;24.60;41.60;;;;;;4908531;28;45945;-66
2022/04/22 11:07:56;;;;;;;2.53;1.80;;;24.60;41.60;;;;;;4943030;28;46097;-65
2022/04/22 11:10:23;;;;;;;1.95;1.65;;;24.50;41.40;;;;;;4945376;28;45425;-64
2022/04/22 11:12:53;;;;;;;2.45;1.40;;;24.50;41.50;;;;;;4922029;28;45103;-64
2022/04/22 11:15:44;;;;;;;5.35;1.55;;;24.50;41.50;;;;;;4946863;28;45663;-70
2022/04/22 11:18:13;;;;;;;1.55;1.45;;;24.40;41.50;;;;;;4928306;28;46168;-68
2022/04/22 11:20:42;;;;;;;2.00;1.70;;;24.40;41.80;;;;;;4928130;28;45323;-65
2022/04/22 11:23:12;;;;;;;1.73;1.50;;;24.40;41.70;;;;;;4928416;28;45578;-68
2022/04/22 11:25:37;;;;;;;1.80;1.70;;;24.40;41.80;;;;;;4919814;28;44913;-67
2022/04/22 11:28:04;;;;;;;1.60;1.42;;;24.40;41.90;;;;;;4909469;28;46031;-67
2022/04/22 11:30:32;;;;;;;1.60;1.50;;;24.30;41.90;;;;;;4927414;28;45834;-66
2022/04/22 11:33:23;;;;;;;2.03;1.67;;;24.30;41.90;;;;;;4941922;28;45303;-67
2022/04/22 11:35:50;;;;;;;3.63;1.48;;;24.30;41.70;;;;;;4910285;28;45757;-67
2022/04/22 11:38:15;;;;;;;2.10;1.90;;;24.20;41.90;;;;;;4897240;28;46845;-70
2022/04/22 11:40:43;;;;;;;1.95;1.77;;;24.20;42.00;;;;;;4928751;28;46435;-70
2022/04/22 11:43:12;;;;;;;2.00;1.58;;;24.20;42.00;;;;;;4932554;28;45379;-65
2022/04/22 11:45:44;;;;;;;2.70;1.98;;;24.20;42.00;;;;;;4922293;28;45426;-71
2022/04/22 11:48:11;;;;;;;1.90;1.63;;;24.10;41.90;;;;;;4928121;28;45123;-67
2022/04/22 11:50:42;;;;;;;2.88;2.00;;;24.10;42.00;;;;;;4922053;28;45085;-69
2022/04/22 11:53:16;;;;;;;2.70;2.50;;;24.10;42.10;;;;;;4922294;28;45266;-65
2022/04/22 11:55:42;;;;;;;3.42;2.20;;;24.30;41.80;;;;;;4910967;28;44844;-69
2022/04/22 11:58:20;;;;;;;2.63;2.22;;;24.20;42.00;;;;;;4907302;28;46203;-66
2022/04/22 12:06:15;;;;;;;1.95;1.83;;;24.10;42.20;;;;;;4933428;28;45344;-69
2022/04/22 12:08:54;;;;;;;2.55;1.92;;;24.10;42.30;;;;;;4923853;28;48462;-68
2022/04/22 12:11:20;;;;;;;1.92;1.67;;;24.10;42.10;;;;;;4927493;28;44976;-68
2022/04/22 12:13:47;;;;;;;2.05;1.88;;;24.00;42.30;;;;;;4942841;28;45160;-71
2022/04/22 12:16:17;;;;;;;1.83;1.70;;;24.00;42.30;;;;;;4924381;28;45689;-73
2022/04/22 12:18:43;;;;;;;2.17;1.98;;;24.00;42.30;;;;;;4925445;28;46302;-65
2022/04/22 12:21:11;;;;;;;1.95;1.77;;;24.00;42.40;;;;;;4921265;28;44779;-68
2022/04/22 12:23:42;;;;;;;2.13;1.90;;;24.00;42.40;;;;;;4914190;28;45646;-69
2022/04/22 12:26:17;;;;;;;2.60;2.10;;;24.00;42.40;;;;;;4921362;28;45404;-69
2022/04/22 12:28:56;;;;;;;2.15;1.95;;;23.90;42.30;;;;;;4923637;28;46374;-66
2022/04/22 12:31:22;;;;;;;2.30;2.08;;;23.90;42.20;;;;;;4919719;28;46757;-64
2022/04/22 12:34:05;;;;;;;2.33;1.80;;;23.90;42.50;;;;;;4924038;28;45690;-67
2022/04/22 12:36:57;;;;;;;2.22;2.03;;;23.90;42.40;;;;;;4915544;28;45008;-69
2022/04/22 12:39:44;;;;;;;2.00;1.80;;;23.90;42.30;;;;;;4924558;28;45689;-63
2022/04/22 12:42:19;;;;;;;2.20;2.00;;;23.90;42.30;;;;;;4923622;28;46255;-65
2022/04/22 12:53:31;;;;;;;4.15;2.10;;;23.80;42.50;;;;;;4922479;28;44975;-67
2022/04/22 12:56:01;;;;;;;2.38;2.17;;;23.80;42.50;;;;;;4924380;28;45544;-66
2022/04/22 12:58:27;;;;;;;3.28;2.33;;;23.80;42.60;;;;;;4906216;28;44821;-66
2022/04/22 13:00:53;;;;;;;2.40;2.15;;;23.80;42.70;;;;;;4906516;28;48357;-68
2022/04/22 13:03:21;;;;;;;2.63;2.13;;;23.80;42.60;;;;;;4891976;28;45598;-68
2022/04/22 13:05:48;;;;;;;2.45;2.17;;;23.80;42.70;;;;;;4922164;28;45523;-67
2022/04/22 13:08:15;;;;;;;2.50;1.88;;;23.80;42.80;;;;;;4892833;28;45307;-65
2022/04/22 13:10:41;;;;;;;2.45;2.00;;;23.70;42.70;;;;;;4921938;28;46991;-65
2022/04/22 13:13:08;;;;;;;3.03;2.30;;;23.70;42.80;;;;;;4923623;28;44766;-65
2022/04/22 13:15:33;;;;;;;2.88;2.28;;;23.70;42.80;;;;;;4922281;28;45782;-66
2022/04/22 13:17:59;;;;;;;3.50;1.98;;;23.70;42.80;;;;;;4921395;28;45226;-65
2022/04/22 13:20:24;;;;;;;2.70;2.20;;;23.70;42.80;;;;;;4920449;28;45663;-66
2022/04/22 13:22:50;;;;;;;3.45;1.70;;;23.70;42.90;;;;;;4915687;28;45855;-66
2022/04/22 13:25:17;;;;;;;2.72;2.20;;;23.70;42.90;;;;;;4923327;28;45298;-66
2022/04/22 13:27:44;;;;;;;2.47;2.08;;;23.70;42.90;;;;;;4906724;28;46202;-65
2022/04/22 13:30:10;;;;;;;2.30;2.10;;;23.60;42.90;;;;;;4923192;28;46037;-65
2022/04/22 13:32:38;;;;;;;2.85;2.00;;;23.60;43.00;;;;;;4922928;28;45343;-63
2022/04/22 13:35:05;;;;;;;2.95;1.77;;;23.60;42.90;;;;;;4935452;28;45471;-64
2022/04/22 13:37:33;;;;;;;1.95;1.70;;;23.60;43.00;;;;;;4926521;28;46232;-63
2022/04/22 13:39:59;;;;;;;3.53;1.80;;;23.60;43.60;;;;;;4924166;28;47895;-65
2022/04/22 13:42:25;;;;;;;2.45;2.15;;;23.60;43.10;;;;;;4916990;28;45635;-63
2022/04/22 13:53:04;;;;;;;2.72;2.15;;;23.50;43.10;;;;;;4917343;28;45980;-65
2022/04/22 13:55:30;;;;;;;2.20;2.00;;;23.50;43.20;;;;;;4927247;28;46276;-68
2022/04/22 13:57:56;;;;;;;2.67;1.90;;;23.50;43.20;;;;;;4925561;28;44774;-65
2022/04/22 14:00:22;;;;;;;3.65;2.05;;;23.50;43.20;;;;;;4932089;28;47751;-68
2022/04/22 14:02:48;;;;;;;2.28;2.03;;;23.50;43.20;;;;;;4927122;28;46495;-68
2022/04/22 14:05:20;;;;;;;2.67;2.05;;;23.50;43.20;;;;;;4926389;28;45365;-66
2022/04/22 14:07:48;;;;;;;2.33;2.10;;;23.50;43.30;;;;;;4930955;28;46313;-66
2022/04/22 14:10:13;;;;;;;3.33;2.35;;;23.50;43.30;;;;;;4927769;28;46380;-66
2022/04/22 14:12:39;;;;;;;2.22;2.03;;;23.50;43.30;;;;;;4927609;28;45811;-72
2022/04/22 14:15:05;;;;;;;5.57;3.08;;;23.50;43.30;;;;;;4947439;28;45284;-65
2022/04/22 14:17:31;;;;;;;2.28;2.08;;;23.50;43.30;;;;;;4944521;28;45614;-67
2022/04/22 14:19:56;;;;;;;2.83;2.15;;;23.40;43.30;;;;;;4929397;28;45584;-67
2022/04/22 14:22:22;;;;;;;2.53;2.30;;;23.50;43.40;;;;;;4945037;28;45711;-71
2022/04/22 14:24:48;;;;;;;2.38;1.98;;;23.40;43.30;;;;;;4947099;28;45689;-66
2022/04/22 14:27:15;;;;;;;2.50;2.30;;;23.40;43.30;;;;;;4929750;28;45598;-62
2022/04/22 14:29:40;;;;;;;2.40;2.20;;;23.40;43.40;;;;;;4945860;28;47129;-64
2022/04/22 14:32:07;;;;;;;2.20;2.00;;;23.40;43.40;;;;;;4930162;28;45366;-68
2022/04/22 14:34:33;;;;;;;2.40;2.20;;;23.40;43.40;;;;;;4928213;28;45763;-67
2022/04/22 14:36:59;;;;;;;2.80;2.28;;;23.40;43.50;;;;;;4930063;28;45679;-68
2022/04/22 14:39:24;;;;;;;2.38;2.08;;;23.40;43.50;;;;;;4926906;28;45795;-66
2022/04/22 14:41:50;;;;;;;3.22;2.05;;;23.40;43.50;;;;;;4928650;28;46263;-66
2022/04/22 14:44:16;;;;;;;2.35;2.15;;;23.40;43.50;;;;;;4938856;28;45636;-66
2022/04/22 14:46:43;;;;;;;2.42;2.10;;;23.40;43.50;;;;;;4929739;28;45932;-66
2022/04/22 14:49:12;;;;;;;2.35;2.15;;;23.30;43.50;;;;;;4929815;28;46538;-66
2022/04/22 14:51:38;;;;;;;4.07;1.92;;;23.30;43.50;;;;;;4917514;28;45329;-65
2022/04/22 14:54:03;;;;;;;4.63;2.38;;;23.30;43.60;;;;;;4949406;28;44806;-66
2022/04/22 14:56:29;;;;;;;3.55;2.10;;;23.30;43.60;;;;;;4928393;28;45560;-65
2022/04/22 14:58:54;;;;;;;3.15;1.88;;;23.30;43.60;;;;;;4913548;28;46135;-66
2022/04/22 15:01:20;;;;;;;4.72;2.17;;;23.30;43.60;;;;;;4933252;28;45019;-66
2022/04/22 15:03:46;;;;;;;2.35;2.15;;;23.30;43.60;;;;;;4941533;28;45579;-65
2022/04/22 15:06:11;;;;;;;2.90;2.38;;;23.30;43.60;;;;;;4926608;28;45113;-66
2022/04/22 15:08:37;;;;;;;5.18;2.55;;;23.30;43.70;;;;;;4912155;28;46939;-67
2022/04/22 15:11:02;;;;;;;3.05;2.70;;;23.30;43.20;;;;;;4895212;28;46057;-68
2022/04/22 15:13:33;;;;;;;3.03;2.75;;;23.30;42.30;;;;;;4926620;28;45267;-67
2022/04/22 15:15:59;;;;;;;8.60;3.97;;;23.30;41.60;;;;;;4923868;28;45827;-67
2022/04/22 15:24:09;;;;;;;4.57;2.78;;;23.00;40.70;;;;;;4927221;28;45270;-67
2022/04/22 15:26:35;;;;;;;3.05;2.70;;;23.00;40.90;;;;;;4938207;28;45088;-67
2022/04/22 15:29:02;;;;;;;5.03;3.13;;;23.00;40.90;;;;;;4906743;28;45710;-68
2022/04/22 15:31:28;;;;;;;5.40;3.03;;;22.90;41.00;;;;;;4942536;28;45424;-68
2022/04/22 15:33:54;;;;;;;3.78;2.90;;;22.90;41.00;;;;;;4927195;28;45426;-67
2022/04/22 15:36:19;;;;;;;3.45;3.15;;;23.00;41.10;;;;;;4942445;28;45508;-67
2022/04/22 15:38:45;;;;;;;3.72;3.33;;;22.90;41.10;;;;;;4925731;28;45426;-67
2022/04/22 15:41:15;;;;;;;3.75;3.00;;;22.90;41.10;;;;;;4925931;28;46409;-67
2022/04/22 15:43:42;;;;;;;3.97;3.10;;;22.90;41.10;;;;;;4913730;28;45745;-67
2022/04/22 15:46:08;;;;;;;3.65;3.00;;;22.90;41.30;;;;;;4933410;28;45571;-68
2022/04/22 15:48:36;;;;;;;3.42;2.80;;;22.90;41.40;;;;;;4920799;28;45721;-68
2022/04/22 15:51:04;;;;;;;4.55;2.92;;;22.90;41.40;;;;;;4924984;28;45520;-67
2022/04/22 15:53:33;;;;;;;5.45;3.05;;;22.90;41.50;;;;;;4910071;28;45302;-67
2022/04/22 15:55:58;;;;;;;3.67;3.35;;;22.90;41.60;;;;;;4899256;28;45415;-67
2022/04/22 15:58:24;;;;;;;3.55;3.00;;;22.90;41.60;;;;;;4916635;28;46099;-67
2022/04/22 16:00:50;;;;;;;4.03;3.38;;;22.90;41.70;;;;;;4917758;28;45217;-67
2022/04/22 16:03:16;;;;;;;3.05;2.63;;;22.90;41.70;;;;;;4895365;28;45441;-68
2022/04/22 16:05:41;;;;;;;3.28;2.78;;;22.80;41.70;;;;;;4899184;28;45701;-67
2022/04/22 16:08:09;;;;;;;3.67;2.95;;;22.80;41.80;;;;;;4897846;28;45842;-67
2022/04/22 16:10:35;;;;;;;4.93;3.05;;;22.80;41.90;;;;;;4915518;28;44763;-67
2022/04/22 16:15:47;;;;;;;5.95;2.90;;;22.70;41.90;;;;;;4915912;28;45406;-67
2022/04/22 16:18:15;;;;;;;3.40;3.10;;;22.80;42.00;;;;;;4917274;28;46249;-67
2022/04/22 16:20:41;;;;;;;2.92;2.60;;;22.80;42.00;;;;;;4915413;28;45656;-67
2022/04/22 16:23:06;;;;;;;3.47;3.17;;;22.70;42.10;;;;;;4919595;28;46106;-66
2022/04/22 16:25:32;;;;;;;3.33;3.03;;;22.70;42.10;;;;;;4919616;28;45289;-67
2022/04/22 16:28:00;;;;;;;3.10;2.88;;;22.70;42.10;;;;;;4901061;28;45539;-67
2022/04/22 16:30:26;;;;;;;3.17;2.88;;;22.70;42.10;;;;;;4928281;28;45375;-67
2022/04/22 16:32:52;;;;;;;3.72;3.05;;;22.70;42.20;;;;;;4915348;28;47017;-68
2022/04/22 16:35:18;;;;;;;3.28;2.90;;;22.70;42.20;;;;;;4903251;28;45128;-67
2022/04/22 16:37:44;;;;;;;4.65;2.75;;;22.60;42.20;;;;;;4898507;28;45682;-68
2022/04/22 16:40:10;;;;;;;3.50;2.88;;;22.70;42.30;;;;;;4919237;28;44699;-67
2022/04/22 16:42:38;;;;;;;3.00;2.75;;;22.60;42.30;;;;;;4903351;28;46299;-68
2022/04/22 16:45:23;;;;;;;3.42;2.88;;;22.60;42.40;;;;;;4902765;28;45636;-68
2022/04/22 16:47:49;;;;;;;2.65;2.45;;;22.60;42.40;;;;;;4931061;28;46901;-66
2022/04/22 16:50:15;;;;;;;2.92;2.63;;;22.60;42.50;;;;;;4919490;28;45832;-67
2022/04/22 16:52:47;;;;;;;3.03;2.45;;;22.60;42.60;;;;;;4902140;28;45511;-67
2022/04/22 16:55:13;;;;;;;3.75;2.83;;;22.60;42.50;;;;;;4919633;28;45773;-67
2022/04/22 16:57:39;;;;;;;2.83;2.50;;;22.50;42.50;;;;;;4918042;28;46520;-67
2022/04/22 17:00:09;;;;;;;3.22;2.83;;;22.50;42.50;;;;;;4886825;28;45522;-66
2022/04/22 17:02:35;;;;;;;2.92;2.63;;;22.50;42.60;;;;;;4917369;28;45552;-66